Time;durP1;ratioP1;P1;durP2;ratioP2;P2;SDS_P1;SDS_P2;PMS_P1;PMS_P2;Temp;Humidity;BMP_temperature;BMP_pressure;BME280_temperature;BME280_humidity;BME280_pressure;Samples;Min_cycle;Max_cycle;Signal;HPM_P1;HPM_P2
2020/12/31 00:01:25;;;;;;;0.03;0.00;;;7.60;86.30;;;;;;5029056;28;20038;-87
2020/12/31 00:03:51;;;;;;;1.27;0.22;;;7.60;86.30;;;;;;5015343;28;20128;-88
2020/12/31 00:06:18;;;;;;;0.00;0.00;;;7.60;86.30;;;;;;5032362;28;20040;-88
2020/12/31 00:08:44;;;;;;;0.55;0.28;;;7.50;86.30;;;;;;5032573;28;20305;-87
2020/12/31 00:11:11;;;;;;;0.10;0.00;;;7.50;86.30;;;;;;5031859;28;20029;-88
2020/12/31 00:13:38;;;;;;;0.15;0.00;;;7.50;86.40;;;;;;5035439;28;20083;-87
2020/12/31 00:16:05;;;;;;;0.47;0.05;;;7.50;86.40;;;;;;5034407;28;20112;-87
2020/12/31 00:18:31;;;;;;;0.00;0.00;;;7.50;86.40;;;;;;5035421;28;20057;-88
2020/12/31 00:20:57;;;;;;;0.00;0.00;;;7.50;86.40;;;;;;5018520;28;20045;-87
2020/12/31 00:23:24;;;;;;;0.00;0.00;;;7.50;86.40;;;;;;5018804;28;20544;-88
2020/12/31 00:25:53;;;;;;;0.00;0.00;;;7.50;86.40;;;;;;5035098;28;20530;-87
2020/12/31 00:28:20;;;;;;;0.13;0.10;;;7.50;86.40;;;;;;5035878;28;20041;-88
2020/12/31 00:30:46;;;;;;;0.10;0.00;;;7.50;86.40;;;;;;5018105;28;20056;-86
2020/12/31 00:33:19;;;;;;;0.35;0.10;;;7.50;86.50;;;;;;5035162;28;20033;-87
2020/12/31 00:35:56;;;;;;;0.00;0.00;;;7.50;86.50;;;;;;5034673;28;20430;-87
2020/12/31 00:38:23;;;;;;;2.15;0.43;;;7.40;86.60;;;;;;5035327;28;20037;-87
2020/12/31 00:40:49;;;;;;;0.10;0.10;;;7.40;86.60;;;;;;5018061;28;20042;-86
2020/12/31 00:43:16;;;;;;;0.00;0.00;;;7.40;86.70;;;;;;5035435;28;20036;-88
2020/12/31 00:45:42;;;;;;;0.00;0.00;;;7.30;86.70;;;;;;5017596;28;20333;-87
2020/12/31 00:48:08;;;;;;;0.00;0.00;;;7.30;86.80;;;;;;5035256;28;20324;-87
2020/12/31 00:50:35;;;;;;;0.00;0.00;;;7.30;86.80;;;;;;5035088;28;20035;-88
2020/12/31 00:53:02;;;;;;;0.00;0.00;;;7.30;86.80;;;;;;5033901;28;20045;-88
2020/12/31 00:55:28;;;;;;;0.00;0.00;;;7.30;86.90;;;;;;5034990;28;20036;-88
2020/12/31 00:57:54;;;;;;;0.03;0.00;;;7.30;86.90;;;;;;5035987;28;20045;-87
2020/12/31 01:00:21;;;;;;;0.00;0.00;;;7.30;86.80;;;;;;5034425;28;20030;-89
2020/12/31 01:02:47;;;;;;;0.28;0.10;;;7.30;86.90;;;;;;5018351;28;20045;-89
2020/12/31 01:05:14;;;;;;;0.00;0.00;;;7.30;87.00;;;;;;5024550;28;20036;-87
2020/12/31 01:07:40;;;;;;;0.13;0.10;;;7.20;86.90;;;;;;5029893;28;20048;-88
2020/12/31 01:10:07;;;;;;;0.00;0.00;;;7.20;86.90;;;;;;5025233;28;20550;-87
2020/12/31 01:12:34;;;;;;;0.00;0.00;;;7.20;86.80;;;;;;5010885;28;20443;-87
2020/12/31 01:15:00;;;;;;;0.00;0.00;;;7.20;86.80;;;;;;5029488;28;20029;-86
2020/12/31 01:17:27;;;;;;;0.03;0.03;;;7.20;86.90;;;;;;5044289;28;20037;-88
2020/12/31 01:19:53;;;;;;;0.00;0.00;;;7.30;86.90;;;;;;5037302;28;20045;-87
2020/12/31 01:22:19;;;;;;;2.50;0.90;;;7.30;86.90;;;;;;5029314;28;20033;-88
2020/12/31 01:24:46;;;;;;;0.00;0.00;;;7.30;86.90;;;;;;5022928;28;20046;-88
2020/12/31 01:27:13;;;;;;;0.20;0.08;;;7.20;86.80;;;;;;5013142;28;20041;-88
2020/12/31 01:29:40;;;;;;;0.10;0.00;;;7.30;86.90;;;;;;5015195;28;20045;-86
2020/12/31 01:32:06;;;;;;;0.40;0.23;;;7.20;86.80;;;;;;5033277;28;20325;-88
2020/12/31 01:34:34;;;;;;;0.10;0.10;;;7.30;87.00;;;;;;5016679;28;20076;-88
2020/12/31 01:37:01;;;;;;;0.00;0.00;;;7.30;86.90;;;;;;5034465;28;20037;-87
2020/12/31 01:39:27;;;;;;;0.00;0.00;;;7.30;86.90;;;;;;5034547;28;20048;-87
2020/12/31 01:41:53;;;;;;;0.00;0.00;;;7.30;86.90;;;;;;5030179;28;20439;-86
2020/12/31 01:44:20;;;;;;;0.20;0.00;;;7.30;86.90;;;;;;5018140;28;20037;-87
2020/12/31 01:46:47;;;;;;;0.00;0.00;;;7.30;86.80;;;;;;5033601;28;20064;-86
2020/12/31 01:49:16;;;;;;;0.00;0.00;;;7.30;86.80;;;;;;5018137;28;20041;-87
2020/12/31 01:51:44;;;;;;;0.00;0.00;;;7.30;86.70;;;;;;5034008;28;20452;-89
2020/12/31 01:54:11;;;;;;;0.00;0.00;;;7.40;86.70;;;;;;5033901;28;20029;-93
2020/12/31 01:56:38;;;;;;;0.00;0.00;;;7.40;86.70;;;;;;5026055;28;20034;-87
2020/12/31 01:59:04;;;;;;;1.55;0.20;;;7.40;86.60;;;;;;5016045;28;20483;-86
2020/12/31 02:01:30;;;;;;;0.00;0.00;;;7.40;86.60;;;;;;5031282;28;20440;-88
2020/12/31 02:03:57;;;;;;;0.20;0.10;;;7.40;86.60;;;;;;5016295;28;20042;-90
2020/12/31 02:06:24;;;;;;;0.22;0.00;;;7.40;86.70;;;;;;5034049;28;20045;-87
2020/12/31 02:08:51;;;;;;;0.00;0.00;;;7.40;86.70;;;;;;5032853;28;20045;-88
2020/12/31 02:11:18;;;;;;;3.45;0.13;;;7.40;86.70;;;;;;5032899;28;20037;-87
2020/12/31 02:13:44;;;;;;;1.55;0.52;;;7.30;86.60;;;;;;5033301;28;20029;-87
2020/12/31 02:16:17;;;;;;;0.10;0.10;;;7.40;86.70;;;;;;5032546;28;20029;-87
2020/12/31 02:18:57;;;;;;;0.00;0.00;;;7.40;86.70;;;;;;5033056;28;20037;-87
2020/12/31 02:21:31;;;;;;;0.00;0.00;;;7.40;86.70;;;;;;5033086;28;20026;-86
2020/12/31 02:23:58;;;;;;;0.32;0.20;;;7.40;86.70;;;;;;5016537;28;20045;-86
2020/12/31 02:26:26;;;;;;;0.00;0.00;;;7.40;86.70;;;;;;5032995;28;20029;-89
2020/12/31 02:28:53;;;;;;;0.93;0.32;;;7.40;86.70;;;;;;5033125;28;20048;-92
2020/12/31 02:31:20;;;;;;;0.45;0.20;;;7.30;86.60;;;;;;5032211;28;20039;-86
2020/12/31 02:33:47;;;;;;;11.90;0.20;;;7.40;86.70;;;;;;5033901;28;20029;-87
2020/12/31 02:36:14;;;;;;;0.00;0.00;;;7.40;86.70;;;;;;5011095;28;20049;-87
2020/12/31 02:38:41;;;;;;;0.00;0.00;;;7.40;86.70;;;;;;5015550;28;20057;-87
2020/12/31 02:41:07;;;;;;;0.00;0.00;;;7.40;86.70;;;;;;5027360;28;20056;-87
2020/12/31 02:43:34;;;;;;;0.00;0.00;;;7.40;86.70;;;;;;4998046;28;20060;-87
2020/12/31 02:46:01;;;;;;;0.00;0.00;;;7.40;86.80;;;;;;5012021;28;20029;-87
2020/12/31 02:48:28;;;;;;;0.10;0.00;;;7.40;86.90;;;;;;5013409;28;20582;-87
2020/12/31 02:50:54;;;;;;;0.00;0.00;;;7.40;86.90;;;;;;5022007;28;20049;-87
2020/12/31 02:53:20;;;;;;;0.00;0.00;;;7.40;86.80;;;;;;5025840;28;20041;-87
2020/12/31 02:55:47;;;;;;;0.00;0.00;;;7.40;86.80;;;;;;5007800;28;20432;-86
2020/12/31 02:58:13;;;;;;;0.00;0.00;;;7.40;86.80;;;;;;5026624;28;20089;-87
2020/12/31 03:00:40;;;;;;;2.08;0.47;;;7.40;86.80;;;;;;5031016;28;20029;-86
2020/12/31 03:03:06;;;;;;;0.08;0.00;;;7.40;86.70;;;;;;5013583;28;20056;-87
2020/12/31 03:05:32;;;;;;;0.00;0.00;;;7.40;87.50;;;;;;5009941;28;20037;-87
2020/12/31 03:07:59;;;;;;;0.00;0.00;;;7.40;86.70;;;;;;5033177;28;20041;-87
2020/12/31 03:10:25;;;;;;;0.00;0.00;;;7.40;86.70;;;;;;5031495;28;20328;-87
2020/12/31 03:12:52;;;;;;;0.00;0.00;;;7.40;86.80;;;;;;5032106;28;20034;-87
2020/12/31 03:15:19;;;;;;;0.00;0.00;;;7.40;86.70;;;;;;5032052;28;20072;-87
2020/12/31 03:17:45;;;;;;;0.52;0.10;;;7.40;86.80;;;;;;5032010;28;20022;-86
2020/12/31 03:20:12;;;;;;;0.00;0.00;;;7.40;86.70;;;;;;5014904;28;20045;-87
2020/12/31 03:22:38;;;;;;;0.00;0.00;;;7.50;86.70;;;;;;5031415;28;20045;-87
2020/12/31 03:25:05;;;;;;;0.15;0.15;;;7.50;86.70;;;;;;5032112;28;20052;-90
2020/12/31 03:27:32;;;;;;;0.00;0.00;;;7.50;86.70;;;;;;5031312;28;20042;-87
2020/12/31 03:29:58;;;;;;;0.03;0.00;;;7.50;86.60;;;;;;5032847;28;20044;-87
2020/12/31 03:32:25;;;;;;;0.00;0.00;;;7.50;86.60;;;;;;5033557;28;20336;-87
2020/12/31 03:34:51;;;;;;;0.00;0.00;;;7.50;86.60;;;;;;5017775;28;20037;-88
2020/12/31 03:37:17;;;;;;;4.85;0.43;;;7.50;86.60;;;;;;5035138;28;20323;-87
2020/12/31 03:39:44;;;;;;;0.00;0.00;;;7.50;86.60;;;;;;5036598;28;20041;-87
2020/12/31 03:42:11;;;;;;;0.00;0.00;;;7.50;87.40;;;;;;5036060;28;20029;-87
2020/12/31 03:44:37;;;;;;;0.00;0.00;;;7.50;87.50;;;;;;5036130;28;20044;-87
2020/12/31 03:47:04;;;;;;;0.75;0.20;;;7.50;86.90;;;;;;5033985;28;20038;-88
2020/12/31 03:49:30;;;;;;;0.00;0.00;;;7.40;87.00;;;;;;5037169;28;20037;-87
2020/12/31 03:51:56;;;;;;;0.00;0.00;;;7.30;87.10;;;;;;5036138;28;20036;-87
2020/12/31 03:54:23;;;;;;;0.00;0.00;;;7.40;87.30;;;;;;5035759;28;20097;-90
2020/12/31 03:56:49;;;;;;;0.52;0.30;;;7.30;87.30;;;;;;5019195;28;20447;-87
2020/12/31 03:59:15;;;;;;;0.00;0.00;;;7.30;87.30;;;;;;5003394;28;20033;-86
2020/12/31 04:01:42;;;;;;;0.10;0.00;;;7.30;87.30;;;;;;5035460;28;20076;-89
2020/12/31 04:04:08;;;;;;;0.00;0.00;;;7.40;87.30;;;;;;5035944;28;20064;-87
2020/12/31 04:06:34;;;;;;;0.20;0.20;;;7.40;87.20;;;;;;5032596;28;20026;-88
2020/12/31 04:09:01;;;;;;;0.00;0.00;;;7.40;87.20;;;;;;5019690;28;20033;-89
2020/12/31 04:11:27;;;;;;;0.00;0.00;;;7.40;87.20;;;;;;5006485;28;20041;-86
2020/12/31 04:13:54;;;;;;;0.00;0.00;;;7.50;87.20;;;;;;5025003;28;20045;-87
2020/12/31 04:16:20;;;;;;;0.10;0.05;;;7.40;87.00;;;;;;5012092;28;20477;-87
2020/12/31 04:18:46;;;;;;;0.00;0.00;;;7.50;87.00;;;;;;5028804;28;20040;-88
2020/12/31 04:21:13;;;;;;;0.10;0.00;;;7.50;87.00;;;;;;5014861;28;20048;-87
2020/12/31 04:23:39;;;;;;;0.00;0.00;;;7.50;86.90;;;;;;5030384;28;20045;-88
2020/12/31 04:26:09;;;;;;;1.85;0.38;;;7.50;86.90;;;;;;5018668;28;20048;-87
2020/12/31 04:28:36;;;;;;;0.00;0.00;;;7.50;86.90;;;;;;5026072;28;20065;-87
2020/12/31 04:31:02;;;;;;;0.00;0.00;;;7.50;86.90;;;;;;5032371;28;20091;-88
2020/12/31 04:33:29;;;;;;;0.00;0.00;;;7.50;86.90;;;;;;5031908;28;20416;-88
2020/12/31 04:35:55;;;;;;;2.72;0.13;;;7.60;86.90;;;;;;5027528;28;20040;-87
2020/12/31 04:38:22;;;;;;;0.00;0.00;;;7.60;87.70;;;;;;5017542;28;20033;-87
2020/12/31 04:40:48;;;;;;;0.22;0.05;;;7.50;86.90;;;;;;5029302;28;20029;-90
2020/12/31 04:43:14;;;;;;;0.15;0.08;;;7.50;87.00;;;;;;5015385;28;20329;-87
2020/12/31 04:45:41;;;;;;;0.00;0.00;;;7.50;87.10;;;;;;5027823;28;20408;-88
2020/12/31 04:48:08;;;;;;;1.05;0.35;;;7.40;87.20;;;;;;5026026;28;20026;-87
2020/12/31 04:50:42;;;;;;;0.00;0.00;;;7.40;87.30;;;;;;5026843;28;20048;-87
2020/12/31 04:53:09;;;;;;;0.00;0.00;;;7.40;87.40;;;;;;5026005;28;20037;-86
2020/12/31 04:55:53;;;;;;;1.45;0.20;;;7.40;87.50;;;;;;5024640;28;20037;-85
2020/12/31 04:58:20;;;;;;;0.00;0.00;;;7.40;87.60;;;;;;5024592;28;20057;-85
2020/12/31 05:00:46;;;;;;;0.00;0.00;;;7.30;87.60;;;;;;5031343;28;20037;-86
2020/12/31 05:03:13;;;;;;;0.00;0.00;;;7.30;87.60;;;;;;5025578;28;20060;-85
2020/12/31 05:05:39;;;;;;;0.00;0.00;;;7.30;87.70;;;;;;5028105;28;20033;-86
2020/12/31 05:08:06;;;;;;;0.00;0.00;;;7.30;87.60;;;;;;5025069;28;20037;-85
2020/12/31 05:10:33;;;;;;;0.15;0.00;;;7.30;87.60;;;;;;5010035;28;20034;-86
2020/12/31 05:13:06;;;;;;;2.00;0.05;;;7.40;87.60;;;;;;5025841;28;20446;-86
2020/12/31 05:15:39;;;;;;;0.00;0.00;;;7.40;87.50;;;;;;5021120;28;20298;-86
2020/12/31 05:18:29;;;;;;;0.00;0.00;;;7.40;87.40;;;;;;5024632;28;20033;-86
2020/12/31 05:20:57;;;;;;;0.60;0.10;;;7.40;87.30;;;;;;5032017;28;20442;-85
2020/12/31 05:23:25;;;;;;;0.00;0.00;;;7.40;87.20;;;;;;5028606;28;20029;-86
2020/12/31 05:25:52;;;;;;;0.00;0.00;;;7.50;87.20;;;;;;5016918;28;20041;-86
2020/12/31 05:28:27;;;;;;;0.00;0.00;;;7.50;87.10;;;;;;5015206;28;20046;-86
2020/12/31 05:30:58;;;;;;;0.00;0.00;;;7.50;87.10;;;;;;5045697;28;20034;-85
2020/12/31 05:33:31;;;;;;;10.38;0.20;;;7.50;87.10;;;;;;5032208;28;20029;-85
2020/12/31 05:36:20;;;;;;;0.00;0.00;;;7.50;87.00;;;;;;5013969;28;20056;-88
2020/12/31 05:38:57;;;;;;;0.00;0.00;;;7.50;87.00;;;;;;5044483;28;20041;-86
2020/12/31 05:41:30;;;;;;;0.00;0.00;;;7.50;87.00;;;;;;5029490;28;20427;-87
2020/12/31 05:43:58;;;;;;;0.05;0.00;;;7.50;87.10;;;;;;5015482;28;20042;-86
2020/12/31 05:46:25;;;;;;;0.00;0.00;;;7.40;87.10;;;;;;5032218;28;20029;-87
2020/12/31 05:48:56;;;;;;;0.00;0.00;;;7.40;87.10;;;;;;5016945;28;20052;-85
2020/12/31 05:51:27;;;;;;;0.00;0.00;;;7.40;87.20;;;;;;5033405;28;20436;-87
2020/12/31 05:53:53;;;;;;;0.90;0.43;;;7.40;87.30;;;;;;5032640;28;20067;-86
2020/12/31 05:56:20;;;;;;;0.00;0.00;;;7.40;87.30;;;;;;5017143;28;20033;-85
2020/12/31 05:58:49;;;;;;;0.00;0.00;;;7.40;87.30;;;;;;5016468;28;20324;-84
2020/12/31 06:01:18;;;;;;;0.00;0.00;;;7.40;87.30;;;;;;5016191;28;20037;-86
2020/12/31 06:03:49;;;;;;;1.10;0.30;;;7.40;87.40;;;;;;5032783;28;20036;-85
2020/12/31 06:06:18;;;;;;;0.00;0.00;;;7.30;87.40;;;;;;5018570;28;20052;-86
2020/12/31 06:08:58;;;;;;;0.00;0.00;;;7.30;87.40;;;;;;5024102;28;20050;-85
2020/12/31 06:11:32;;;;;;;0.20;0.10;;;7.30;87.40;;;;;;5048156;28;21410;-87
2020/12/31 06:14:01;;;;;;;0.30;0.20;;;7.30;87.40;;;;;;5013359;28;20056;-85
2020/12/31 06:16:30;;;;;;;0.00;0.00;;;7.30;87.40;;;;;;5031140;28;20077;-85
2020/12/31 06:19:09;;;;;;;0.77;0.25;;;7.30;87.40;;;;;;5030024;28;20033;-85
2020/12/31 06:21:41;;;;;;;0.00;0.00;;;7.20;87.50;;;;;;5016012;28;20033;-85
2020/12/31 06:24:13;;;;;;;;;;;7.20;87.60;;;;;;5030578;28;20038;-90
2020/12/31 06:26:41;;;;;;;0.00;0.00;;;7.00;87.60;;;;;;5018282;28;19916;-91
2020/12/31 06:29:08;;;;;;;0.05;0.05;;;7.00;87.80;;;;;;5032035;28;20037;-85
2020/12/31 06:31:35;;;;;;;0.07;0.00;;;6.90;87.90;;;;;;5031528;28;20061;-85
2020/12/31 06:34:01;;;;;;;0.00;0.00;;;6.90;88.10;;;;;;5033093;28;20021;-86
2020/12/31 06:36:35;;;;;;;0.00;0.00;;;6.80;88.10;;;;;;5032773;28;20052;-84
2020/12/31 06:39:02;;;;;;;0.20;0.10;;;6.80;88.20;;;;;;5032980;28;20025;-85
2020/12/31 06:41:33;;;;;;;0.50;0.23;;;6.70;88.30;;;;;;5016293;28;20045;-86
2020/12/31 06:44:06;;;;;;;0.00;0.00;;;6.70;88.40;;;;;;5033997;28;20033;-85
2020/12/31 06:46:41;;;;;;;0.15;0.03;;;6.70;88.50;;;;;;5032774;28;20478;-86
2020/12/31 06:49:08;;;;;;;0.00;0.00;;;6.70;88.50;;;;;;5032644;28;20049;-86
2020/12/31 06:51:34;;;;;;;0.13;0.10;;;6.60;88.40;;;;;;5033477;28;20045;-87
2020/12/31 06:54:01;;;;;;;0.05;0.00;;;6.60;88.50;;;;;;5019035;28;20034;-86
2020/12/31 06:56:58;;;;;;;0.20;0.00;;;6.60;88.50;;;;;;5032149;28;20037;-86
2020/12/31 06:59:25;;;;;;;0.07;0.00;;;6.60;88.60;;;;;;5015964;28;20344;-87
2020/12/31 07:01:51;;;;;;;0.00;0.00;;;6.50;88.50;;;;;;5029703;28;20037;-86
2020/12/31 07:04:31;;;;;;;0.20;0.07;;;6.60;88.60;;;;;;5032206;28;20053;-90
2020/12/31 07:07:21;;;;;;;0.20;0.00;;;6.50;88.50;;;;;;5035589;28;20045;-90
2020/12/31 07:09:51;;;;;;;0.00;0.00;;;6.50;88.50;;;;;;5020080;28;20455;-88
2020/12/31 07:12:33;;;;;;;0.00;0.00;;;6.50;88.50;;;;;;5013102;28;20056;-87
2020/12/31 07:15:00;;;;;;;0.00;0.00;;;6.50;88.50;;;;;;5029595;28;20474;-88
2020/12/31 07:17:35;;;;;;;0.00;0.00;;;6.40;88.50;;;;;;5013702;28;20025;-87
2020/12/31 07:20:02;;;;;;;0.00;0.00;;;6.40;88.50;;;;;;5030849;28;20033;-87
2020/12/31 07:22:29;;;;;;;0.00;0.00;;;6.30;88.50;;;;;;5034790;28;20036;-87
2020/12/31 07:25:04;;;;;;;1.47;0.40;;;6.30;88.50;;;;;;5017892;28;20053;-86
2020/12/31 07:27:40;;;;;;;0.00;0.00;;;6.30;88.60;;;;;;5035119;28;20040;-88
2020/12/31 07:30:10;;;;;;;0.00;0.00;;;6.20;88.60;;;;;;5034870;28;20325;-87
2020/12/31 07:32:59;;;;;;;1.17;0.47;;;6.20;88.70;;;;;;5035519;28;20060;-87
2020/12/31 07:35:29;;;;;;;0.00;0.00;;;6.20;88.80;;;;;;5019780;28;20044;-89
2020/12/31 07:38:11;;;;;;;0.22;0.00;;;6.10;88.90;;;;;;5036666;28;20312;-87
2020/12/31 07:40:48;;;;;;;0.00;0.00;;;6.10;88.90;;;;;;5016146;28;20034;-88
2020/12/31 07:43:18;;;;;;;0.10;0.00;;;6.10;89.00;;;;;;5018060;28;20037;-88
2020/12/31 07:45:54;;;;;;;0.52;0.15;;;6.00;89.10;;;;;;5036257;28;20042;-87
2020/12/31 07:48:21;;;;;;;0.20;0.03;;;6.00;89.20;;;;;;5035902;28;20045;-87
2020/12/31 07:51:01;;;;;;;0.13;0.10;;;5.90;89.20;;;;;;5035847;28;20034;-90
2020/12/31 07:53:29;;;;;;;0.00;0.00;;;6.00;89.40;;;;;;5035126;28;20046;-88
2020/12/31 07:55:55;;;;;;;0.00;0.00;;;5.90;89.30;;;;;;5019770;28;20037;-88
2020/12/31 07:58:23;;;;;;;0.53;0.37;;;5.90;89.30;;;;;;5035839;28;20036;-87
2020/12/31 08:00:59;;;;;;;0.00;0.00;;;5.90;89.20;;;;;;5033721;28;20034;-87
2020/12/31 08:03:25;;;;;;;0.30;0.10;;;6.00;89.20;;;;;;5035598;28;20435;-89
2020/12/31 08:05:56;;;;;;;0.00;0.00;;;6.00;89.20;;;;;;5035486;28;20034;-87
2020/12/31 08:08:23;;;;;;;0.00;0.00;;;6.00;89.20;;;;;;5018957;28;20038;-86
2020/12/31 08:10:50;;;;;;;0.00;0.00;;;6.00;89.10;;;;;;5035452;28;20041;-86
2020/12/31 08:13:17;;;;;;;0.63;0.20;;;6.00;89.00;;;;;;5035505;28;20332;-86
2020/12/31 08:15:54;;;;;;;1.30;0.23;;;6.00;89.00;;;;;;5035408;28;20033;-86
2020/12/31 08:18:21;;;;;;;0.03;0.00;;;6.00;88.90;;;;;;5035685;28;20030;-87
2020/12/31 08:20:48;;;;;;;0.00;0.00;;;6.00;88.90;;;;;;5019690;28;20057;-89
2020/12/31 08:23:19;;;;;;;0.00;0.00;;;5.90;88.80;;;;;;5018817;28;20044;-88
2020/12/31 08:25:46;;;;;;;0.00;0.00;;;6.00;88.80;;;;;;5012737;28;20461;-84
2020/12/31 08:28:16;;;;;;;0.00;0.00;;;6.00;88.60;;;;;;5035471;28;20573;-85
2020/12/31 08:30:43;;;;;;;0.10;0.00;;;6.00;88.50;;;;;;5034428;28;20360;-85
2020/12/31 08:33:10;;;;;;;0.00;0.00;;;6.00;88.40;;;;;;5037438;28;20205;-87
2020/12/31 08:35:43;;;;;;;0.20;0.10;;;6.00;88.40;;;;;;5037010;28;20328;-87
2020/12/31 08:38:14;;;;;;;0.20;0.00;;;6.20;88.20;;;;;;5035704;28;20029;-87
2020/12/31 08:40:56;;;;;;;0.13;0.10;;;6.40;87.70;;;;;;5018683;28;20074;-90
2020/12/31 08:43:26;;;;;;;0.00;0.00;;;6.60;87.10;;;;;;5020547;28;20030;-89
2020/12/31 08:45:56;;;;;;;0.07;0.07;;;6.70;86.70;;;;;;5034543;28;20030;-88
2020/12/31 08:48:24;;;;;;;0.00;0.00;;;6.80;86.50;;;;;;5034976;28;20305;-88
2020/12/31 08:51:06;;;;;;;0.05;0.00;;;7.00;86.30;;;;;;5037223;28;20033;-91
2020/12/31 08:53:52;;;;;;;0.00;0.00;;;7.10;85.80;;;;;;5007894;28;20045;-91
2020/12/31 08:56:19;;;;;;;0.27;0.10;;;7.20;85.50;;;;;;5029498;28;20033;-89
2020/12/31 08:58:45;;;;;;;7.53;0.33;;;7.30;85.40;;;;;;5019208;28;20033;-89
2020/12/31 09:01:25;;;;;;;0.10;0.00;;;7.20;85.50;;;;;;5023786;28;20033;-88
2020/12/31 09:04:13;;;;;;;1.55;0.45;;;7.40;85.40;;;;;;5024313;28;20040;-88
2020/12/31 09:06:43;;;;;;;4.85;0.88;;;7.40;85.30;;;;;;5018683;28;20052;-86
2020/12/31 09:09:28;;;;;;;1.88;0.77;;;7.50;85.00;;;;;;5034506;28;20025;-86
2020/12/31 09:12:03;;;;;;;0.00;0.00;;;7.50;85.00;;;;;;5035404;28;20029;-89
2020/12/31 09:14:31;;;;;;;0.05;0.03;;;7.50;85.00;;;;;;5031548;28;20320;-88
2020/12/31 09:16:57;;;;;;;0.00;0.00;;;7.60;85.10;;;;;;5035126;28;20035;-90
2020/12/31 09:19:24;;;;;;;0.03;0.00;;;7.50;85.00;;;;;;5018983;28;20027;-87
2020/12/31 09:21:50;;;;;;;0.00;0.00;;;7.50;85.00;;;;;;5033306;28;20420;-90
2020/12/31 09:24:18;;;;;;;0.03;0.00;;;7.50;85.20;;;;;;5036802;28;20432;-88
2020/12/31 09:26:54;;;;;;;0.15;0.00;;;7.50;85.20;;;;;;5019330;28;20214;-89
2020/12/31 09:29:21;;;;;;;0.52;0.10;;;7.50;85.30;;;;;;5028039;28;20028;-89
2020/12/31 09:31:48;;;;;;;0.00;0.00;;;7.50;86.20;;;;;;5009672;28;20033;-93
2020/12/31 09:34:15;;;;;;;0.17;0.00;;;7.50;85.40;;;;;;5021758;28;20091;-86
2020/12/31 09:36:41;;;;;;;0.05;0.00;;;7.50;85.20;;;;;;5026726;28;20033;-84
2020/12/31 09:39:08;;;;;;;0.00;0.00;;;7.30;85.60;;;;;;5029124;28;20029;-85
2020/12/31 09:41:34;;;;;;;0.00;0.00;;;7.20;86.00;;;;;;5013653;28;20042;-85
2020/12/31 09:44:01;;;;;;;0.90;0.10;;;7.10;86.10;;;;;;5023666;28;20032;-85
2020/12/31 09:46:27;;;;;;;0.03;0.00;;;7.10;86.20;;;;;;5027660;28;20417;-85
2020/12/31 09:48:53;;;;;;;1.20;0.20;;;7.10;86.20;;;;;;5015999;28;20068;-83
2020/12/31 09:51:20;;;;;;;0.03;0.03;;;7.10;86.20;;;;;;5018486;28;20037;-84
2020/12/31 09:53:47;;;;;;;0.43;0.20;;;7.20;86.10;;;;;;5010312;28;20045;-89
2020/12/31 09:56:14;;;;;;;0.00;0.00;;;7.20;85.80;;;;;;5018285;28;20033;-90
2020/12/31 09:58:40;;;;;;;0.00;0.00;;;7.30;85.70;;;;;;5021710;28;20047;-92
2020/12/31 10:01:07;;;;;;;0.30;0.20;;;7.40;85.30;;;;;;5028583;28;20468;-93
2020/12/31 10:03:33;;;;;;;0.00;0.00;;;7.50;84.90;;;;;;5024230;28;20056;-84
2020/12/31 10:06:00;;;;;;;0.00;0.00;;;7.50;84.60;;;;;;5023474;28;20045;-85
2020/12/31 10:08:27;;;;;;;0.90;0.37;;;7.50;84.60;;;;;;5018269;28;20049;-85
2020/12/31 10:10:53;;;;;;;0.40;0.03;;;7.60;84.50;;;;;;5028239;28;20037;-84
2020/12/31 10:13:20;;;;;;;0.00;0.00;;;7.60;84.40;;;;;;5028315;28;20097;-84
2020/12/31 10:15:46;;;;;;;0.00;0.00;;;7.60;84.20;;;;;;5024881;28;20030;-85
2020/12/31 10:18:12;;;;;;;0.30;0.27;;;7.60;84.20;;;;;;5020019;28;20044;-87
2020/12/31 10:20:39;;;;;;;0.00;0.00;;;7.70;84.20;;;;;;5023720;28;20408;-89
2020/12/31 10:23:13;;;;;;;0.00;0.00;;;7.90;83.70;;;;;;5024859;28;20030;-88
2020/12/31 10:25:39;;;;;;;0.10;0.10;;;7.90;83.40;;;;;;5020496;28;20049;-88
2020/12/31 10:28:05;;;;;;;0.40;0.25;;;7.90;83.40;;;;;;5001800;28;20794;-85
2020/12/31 10:30:32;;;;;;;1.05;0.38;;;7.90;83.30;;;;;;5024114;28;20036;-87
2020/12/31 10:32:58;;;;;;;0.22;0.22;;;8.00;83.30;;;;;;5015664;28;20384;-85
2020/12/31 10:35:25;;;;;;;0.28;0.20;;;8.20;83.00;;;;;;5026594;28;20026;-90
2020/12/31 10:38:02;;;;;;;0.47;0.08;;;8.50;82.30;;;;;;5007101;28;20329;-85
2020/12/31 10:40:28;;;;;;;0.00;0.00;;;8.60;81.70;;;;;;5026519;28;20452;-86
2020/12/31 10:42:55;;;;;;;0.00;0.00;;;8.50;81.60;;;;;;5007518;28;20042;-89
2020/12/31 10:45:21;;;;;;;0.10;0.00;;;8.40;82.00;;;;;;5021337;28;20026;-86
2020/12/31 10:47:48;;;;;;;0.30;0.10;;;8.20;82.40;;;;;;5025167;28;20043;-85
2020/12/31 10:50:14;;;;;;;0.70;0.47;;;8.10;82.90;;;;;;5014866;28;20042;-86
2020/12/31 10:52:40;;;;;;;0.63;0.63;;;8.00;83.10;;;;;;5023487;28;20044;-88
2020/12/31 10:55:07;;;;;;;0.20;0.10;;;8.10;83.30;;;;;;5010909;28;20408;-86
2020/12/31 10:57:33;;;;;;;0.82;0.43;;;8.20;83.10;;;;;;5017561;28;20317;-86
2020/12/31 10:59:59;;;;;;;0.00;0.00;;;8.20;82.70;;;;;;5010914;28;20021;-88
2020/12/31 11:02:26;;;;;;;0.00;0.00;;;8.30;82.70;;;;;;5009289;28;20030;-86
2020/12/31 11:04:52;;;;;;;0.10;0.00;;;8.20;82.60;;;;;;5022797;28;20030;-85
2020/12/31 11:07:18;;;;;;;0.73;0.08;;;8.30;82.60;;;;;;5016967;28;20243;-86
2020/12/31 11:09:45;;;;;;;0.90;0.20;;;8.30;82.50;;;;;;5012348;28;20057;-86
2020/12/31 11:12:11;;;;;;;0.55;0.50;;;8.20;82.50;;;;;;5028833;28;20033;-85
2020/12/31 11:14:37;;;;;;;0.95;0.95;;;8.20;82.50;;;;;;5032507;28;20037;-88
2020/12/31 11:17:04;;;;;;;0.52;0.50;;;8.20;82.50;;;;;;5030976;28;20033;-87
2020/12/31 11:19:30;;;;;;;0.20;0.10;;;8.40;82.40;;;;;;5031975;28;20037;-88
2020/12/31 11:21:59;;;;;;;0.10;0.10;;;8.50;81.80;;;;;;5033714;28;20285;-93
2020/12/31 11:24:25;;;;;;;0.10;0.10;;;8.60;81.40;;;;;;5017856;28;20046;-89
2020/12/31 11:26:52;;;;;;;0.20;0.10;;;9.00;80.80;;;;;;5031848;28;20033;-90
2020/12/31 11:29:18;;;;;;;0.10;0.00;;;9.50;79.60;;;;;;5002333;28;20068;-89
2020/12/31 11:31:45;;;;;;;0.00;0.00;;;9.90;78.70;;;;;;5023733;28;20357;-84
2020/12/31 11:34:11;;;;;;;0.00;0.00;;;10.10;77.70;;;;;;5034548;28;20033;-85
2020/12/31 11:36:48;;;;;;;0.13;0.03;;;10.10;77.80;;;;;;5031995;28;20048;-91
2020/12/31 11:39:14;;;;;;;0.00;0.00;;;10.20;77.80;;;;;;5014393;28;20045;-84
2020/12/31 11:41:40;;;;;;;1.55;0.10;;;10.10;77.50;;;;;;5032708;28;20030;-85
2020/12/31 11:44:07;;;;;;;0.20;0.20;;;9.70;78.10;;;;;;5030645;28;20038;-85
2020/12/31 11:46:33;;;;;;;0.47;0.10;;;9.60;79.30;;;;;;5031458;28;20037;-87
2020/12/31 11:48:59;;;;;;;0.20;0.15;;;9.70;79.20;;;;;;5030995;28;20034;-85
2020/12/31 11:51:26;;;;;;;0.10;0.10;;;9.70;79.30;;;;;;5040686;28;20136;-84
2020/12/31 11:53:52;;;;;;;0.10;0.00;;;9.80;78.80;;;;;;5012886;28;20045;-85
2020/12/31 11:56:18;;;;;;;0.20;0.20;;;9.70;78.90;;;;;;5033323;28;20107;-85
2020/12/31 11:58:46;;;;;;;0.00;0.00;;;9.70;79.10;;;;;;5034043;28;20021;-86
2020/12/31 12:01:15;;;;;;;0.00;0.00;;;9.80;78.80;;;;;;5013710;28;20527;-85
2020/12/31 12:03:44;;;;;;;0.00;0.00;;;10.10;78.80;;;;;;5032416;28;20029;-86
2020/12/31 12:06:10;;;;;;;0.00;0.00;;;10.40;78.00;;;;;;5031871;28;20033;-85
2020/12/31 12:08:36;;;;;;;0.00;0.00;;;10.60;77.60;;;;;;5036042;28;20033;-85
2020/12/31 12:11:03;;;;;;;0.00;0.00;;;10.80;77.30;;;;;;5034892;28;20332;-85
2020/12/31 12:13:29;;;;;;;0.00;0.00;;;11.20;76.60;;;;;;5033996;28;20384;-86
2020/12/31 12:15:56;;;;;;;0.22;0.05;;;11.10;76.50;;;;;;5018672;28;20033;-86
2020/12/31 12:18:26;;;;;;;0.00;0.00;;;10.90;77.10;;;;;;5033916;28;20044;-85
2020/12/31 12:21:02;;;;;;;0.30;0.20;;;10.70;77.50;;;;;;5019446;28;20033;-89
2020/12/31 12:23:28;;;;;;;0.00;0.00;;;10.60;78.50;;;;;;5028359;28;20046;-90
2020/12/31 12:25:54;;;;;;;0.60;0.08;;;10.40;78.80;;;;;;5036464;28;20340;-90
2020/12/31 12:28:21;;;;;;;0.00;0.00;;;10.30;78.80;;;;;;5019163;28;20336;-88
2020/12/31 12:30:48;;;;;;;0.20;0.00;;;10.30;79.10;;;;;;5016494;28;20038;-89
2020/12/31 12:33:14;;;;;;;1.55;1.00;;;10.30;78.90;;;;;;5030113;28;20057;-88
2020/12/31 12:35:41;;;;;;;0.80;0.20;;;10.30;78.50;;;;;;5021595;28;20436;-88
2020/12/31 12:38:07;;;;;;;0.00;0.00;;;10.20;78.80;;;;;;5015071;28;20053;-89
2020/12/31 12:40:34;;;;;;;0.10;0.03;;;10.10;78.80;;;;;;5016589;28;20037;-88
2020/12/31 12:43:00;;;;;;;3.30;0.30;;;10.00;78.80;;;;;;5054896;28;20017;-87
2020/12/31 12:45:27;;;;;;;0.00;0.00;;;9.90;79.40;;;;;;5039707;28;20032;-88
2020/12/31 12:47:53;;;;;;;0.70;0.20;;;9.90;79.70;;;;;;5019956;28;20044;-87
2020/12/31 12:50:21;;;;;;;0.43;0.10;;;9.90;79.40;;;;;;5029415;28;20340;-89
2020/12/31 12:52:48;;;;;;;0.00;0.00;;;9.80;79.40;;;;;;5016968;28;20071;-89
2020/12/31 12:55:15;;;;;;;0.03;0.00;;;9.70;79.70;;;;;;5038489;28;20419;-89
2020/12/31 12:57:41;;;;;;;0.35;0.20;;;9.60;79.70;;;;;;5019103;28;20037;-90
2020/12/31 13:00:10;;;;;;;0.00;0.00;;;9.40;80.00;;;;;;5035065;28;20052;-89
2020/12/31 13:02:37;;;;;;;0.00;0.00;;;9.50;80.00;;;;;;5018606;28;20045;-87
2020/12/31 13:05:04;;;;;;;0.08;0.00;;;9.70;79.60;;;;;;5034201;28;20041;-85